createdAt,value
2018-06-10T00:02:45.958Z,30.73
2018-06-10T00:07:42.061Z,33.13
2018-06-10T00:12:36.624Z,32.30
2018-06-10T00:17:31.387Z,35.27
2018-06-10T00:22:26.141Z,34.87
2018-06-10T00:27:20.787Z,31.83
2018-06-10T00:32:15.267Z,31.87
2018-06-10T00:37:09.821Z,37.13
2018-06-10T00:42:04.690Z,36.50
2018-06-10T00:46:59.180Z,43.17
2018-06-10T00:51:53.724Z,37.90
2018-06-10T00:56:52.014Z,40.67
2018-06-10T01:01:46.724Z,44.80
2018-06-10T01:06:41.855Z,45.77
2018-06-10T01:11:37.527Z,46.30
2018-06-10T01:16:32.011Z,39.37
2018-06-10T01:21:26.689Z,32.87
2018-06-10T01:26:26.459Z,32.10
2018-06-10T01:31:20.947Z,25.70
2018-06-10T01:36:17.630Z,26.07
2018-06-10T01:41:12.324Z,27.23
2018-06-10T01:46:06.817Z,29.07
2018-06-10T01:51:01.355Z,30.43
2018-06-10T01:55:55.812Z,32.50
2018-06-10T02:00:51.068Z,29.80
2018-06-10T02:05:45.870Z,28.43
2018-06-10T02:10:40.790Z,30.13
2018-06-10T02:15:35.341Z,34.23
2018-06-10T02:20:30.464Z,30.50
2018-06-10T02:25:25.453Z,34.83
2018-06-10T02:30:19.945Z,32.13
2018-06-10T02:35:14.493Z,36.07
2018-06-10T02:40:09.005Z,33.07
2018-06-10T02:45:04.340Z,33.87
2018-06-10T02:49:58.875Z,35.60
2018-06-10T02:54:53.548Z,36.80
2018-06-10T02:59:48.070Z,38.70
2018-06-10T03:04:42.549Z,38.20
2018-06-10T03:09:37.143Z,44.40
2018-06-10T03:14:31.638Z,48.83
2018-06-10T03:19:25.880Z,47.63
2018-06-10T03:24:20.491Z,51.07
2018-06-10T03:29:15.105Z,50.00
2018-06-10T03:34:09.851Z,50.70
2018-06-10T03:39:06.314Z,48.27
2018-06-10T03:44:00.949Z,49.13
2018-06-10T03:48:56.556Z,50.70
2018-06-10T03:53:51.190Z,48.83
2018-06-10T03:58:45.759Z,47.87
2018-06-10T04:03:40.406Z,48.20
2018-06-10T04:08:35.717Z,45.10
2018-06-10T04:13:30.485Z,52.50
2018-06-10T04:18:25.412Z,58.53
2018-06-10T04:23:20.444Z,51.43
2018-06-10T04:28:14.948Z,51.13
2018-06-10T04:33:09.177Z,49.57
2018-06-10T04:38:03.836Z,49.37
2018-06-10T04:42:58.308Z,44.17
2018-06-10T04:47:52.989Z,34.60
2018-06-10T04:52:47.451Z,29.37
2018-06-10T04:57:41.908Z,23.57
2018-06-10T05:02:36.351Z,24.73
2018-06-10T05:07:32.148Z,21.83
2018-06-10T05:12:26.756Z,18.20
2018-06-10T05:17:21.178Z,17.77
2018-06-10T05:22:15.914Z,17.83
2018-06-10T05:27:11.081Z,19.17
2018-06-10T05:32:05.789Z,21.20
2018-06-10T05:37:00.439Z,18.30
2018-06-10T05:41:55.265Z,16.07
2018-06-10T05:46:50.379Z,20.60
2018-06-10T05:51:44.882Z,17.77
2018-06-10T05:56:39.454Z,17.43
2018-06-10T06:01:34.171Z,17.20
2018-06-10T06:06:33.452Z,21.20
2018-06-10T06:11:28.375Z,20.50
2018-06-10T06:16:23.279Z,24.70
2018-06-10T06:21:18.019Z,26.87
2018-06-10T06:26:12.524Z,24.50
2018-06-10T06:31:07.290Z,23.37
2018-06-10T06:36:01.892Z,22.80
2018-06-10T06:40:56.537Z,22.23
2018-06-10T06:45:51.181Z,22.70
2018-06-10T06:50:45.940Z,22.63
2018-06-10T06:55:40.622Z,24.03
2018-06-10T07:00:35.403Z,24.73
2018-06-10T07:05:31.083Z,25.77
2018-06-10T07:10:25.778Z,27.57
2018-06-10T07:15:20.368Z,24.93
2018-06-10T07:20:14.721Z,29.70
2018-06-10T07:25:09.307Z,26.70
2018-06-10T07:30:04.468Z,27.87
2018-06-10T07:34:58.974Z,28.03
2018-06-10T07:39:53.463Z,33.40
2018-06-10T07:44:48.190Z,31.47
2018-06-10T07:49:42.791Z,31.73
2018-06-10T07:54:37.490Z,30.97
2018-06-10T07:59:32.175Z,34.27
2018-06-10T08:04:26.833Z,37.97
2018-06-10T08:09:21.896Z,39.17
2018-06-10T08:14:16.428Z,38.27
2018-06-10T08:19:11.348Z,41.63
2018-06-10T08:24:05.885Z,45.10
2018-06-10T08:29:00.368Z,38.83
2018-06-10T08:33:54.983Z,40.40
2018-06-10T08:38:49.450Z,41.03
2018-06-10T08:43:43.959Z,45.60
2018-06-10T08:48:38.622Z,49.20
2018-06-10T08:53:33.428Z,47.80
2018-06-10T08:58:28.463Z,61.10
2018-06-10T09:03:23.169Z,63.90
2018-06-10T09:08:17.663Z,62.37
2018-06-10T09:13:12.303Z,56.47
2018-06-10T09:18:06.793Z,54.23
2018-06-10T09:23:01.534Z,49.83
2018-06-10T09:27:56.301Z,50.63
2018-06-10T09:32:51.396Z,44.43
2018-06-10T09:37:46.483Z,43.40
2018-06-10T09:42:41.239Z,48.67
2018-06-10T09:47:35.958Z,46.27
2018-06-10T09:52:30.992Z,53.47
2018-06-10T09:57:26.595Z,52.07
2018-06-10T10:02:21.646Z,54.80
2018-06-10T10:07:16.604Z,51.17
2018-06-10T10:12:11.104Z,54.23
2018-06-10T10:17:05.697Z,53.43
2018-06-10T10:22:01.063Z,54.10
2018-06-10T10:26:56.279Z,51.60
2018-06-10T10:31:51.133Z,53.93
2018-06-10T10:36:46.010Z,47.47
2018-06-10T10:41:41.214Z,52.87
2018-06-10T10:46:35.845Z,53.23
2018-06-10T10:51:30.789Z,40.97
2018-06-10T10:56:25.665Z,43.63
2018-06-10T11:01:20.471Z,48.93
2018-06-10T11:06:14.941Z,48.90
2018-06-10T11:11:09.981Z,50.93
2018-06-10T11:16:05.128Z,48.70
2018-06-10T11:20:59.911Z,58.50
2018-06-10T11:25:54.685Z,57.17
2018-06-10T11:30:49.691Z,57.33
2018-06-10T11:35:44.586Z,56.03
2018-06-10T11:40:39.854Z,58.53
2018-06-10T11:45:36.519Z,59.77
2018-06-10T11:50:32.117Z,57.87
2018-06-10T11:55:27.443Z,52.77
2018-06-10T12:00:22.556Z,51.53
2018-06-10T12:05:17.468Z,50.20
2018-06-10T12:10:12.422Z,63.03
2018-06-10T12:15:07.632Z,64.83
2018-06-10T12:20:02.366Z,63.07
2018-06-10T12:24:57.285Z,57.73
2018-06-10T12:29:52.014Z,58.23
2018-06-10T12:34:46.749Z,58.57
2018-06-10T12:39:41.588Z,57.43
2018-06-10T12:44:36.540Z,58.30
2018-06-10T12:49:31.309Z,63.67
2018-06-10T12:54:26.764Z,63.57
2018-06-10T12:59:21.836Z,57.60
2018-06-10T13:04:16.893Z,55.67
2018-06-10T13:09:12.102Z,48.50
2018-06-10T13:14:06.886Z,56.53
2018-06-10T13:19:01.672Z,51.73
2018-06-10T13:23:56.418Z,47.87
2018-06-10T13:28:51.198Z,46.97
2018-06-10T13:33:46.088Z,49.60
2018-06-10T13:38:41.092Z,38.93
2018-06-10T13:43:35.999Z,29.67
2018-06-10T13:48:31.214Z,24.47
2018-06-10T13:53:26.278Z,19.87
2018-06-10T13:58:21.090Z,22.23
2018-06-10T14:03:16.857Z,18.23
2018-06-10T14:08:13.615Z,19.57
2018-06-10T14:13:09.185Z,17.40
2018-06-10T14:18:03.960Z,17.50
2018-06-10T14:22:59.486Z,17.37
2018-06-10T14:27:54.634Z,15.17
2018-06-10T14:32:49.576Z,20.27
2018-06-10T14:37:44.391Z,15.70
2018-06-10T14:42:39.733Z,13.70
2018-06-10T14:47:34.756Z,15.57
2018-06-10T14:52:29.612Z,14.40
2018-06-10T14:57:24.542Z,14.87
2018-06-10T15:02:19.714Z,16.13
2018-06-10T15:07:14.247Z,14.17
2018-06-10T15:12:09.215Z,13.90
2018-06-10T15:17:04.031Z,12.90
2018-06-10T15:21:59.007Z,12.93
2018-06-10T15:26:54.207Z,14.60
2018-06-10T15:31:49.058Z,13.43
2018-06-10T15:36:43.825Z,13.47
2018-06-10T15:41:39.477Z,14.13
2018-06-10T15:46:34.309Z,13.73
2018-06-10T15:51:29.261Z,12.80
2018-06-10T15:56:25.605Z,17.00
2018-06-10T16:01:20.213Z,14.33
2018-06-10T16:06:15.172Z,14.10
2018-06-10T16:11:10.190Z,16.50
2018-06-10T16:16:05.053Z,16.93
2018-06-10T16:20:59.935Z,13.80
2018-06-10T16:25:55.439Z,13.27
2018-06-10T16:30:50.056Z,15.43
2018-06-10T16:35:44.551Z,18.73
2018-06-10T16:40:39.172Z,15.27
2018-06-10T16:45:33.896Z,16.23
2018-06-10T16:50:28.764Z,13.83
2018-06-10T16:55:24.038Z,14.43
2018-06-10T17:00:19.074Z,15.63
2018-06-10T17:05:14.327Z,14.83
2018-06-10T17:10:09.073Z,15.30
2018-06-10T17:15:03.552Z,14.37
2018-06-10T17:19:58.084Z,16.77
2018-06-10T17:24:52.626Z,16.73
2018-06-10T17:29:47.327Z,16.80
2018-06-10T17:34:41.877Z,16.90
2018-06-10T17:39:36.513Z,16.83
2018-06-10T17:44:31.249Z,15.50
2018-06-10T17:49:26.020Z,16.93
2018-06-10T17:54:20.462Z,15.97
2018-06-10T17:59:15.031Z,15.10
2018-06-10T18:04:10.871Z,17.80
2018-06-10T18:09:08.644Z,16.70
2018-06-10T18:14:03.908Z,17.77
2018-06-10T18:18:58.674Z,15.73
2018-06-10T18:23:53.346Z,18.40
2018-06-10T18:28:48.893Z,17.03
2018-06-10T18:33:43.582Z,17.67
2018-06-10T18:38:38.162Z,16.87
2018-06-10T18:43:32.655Z,17.67
2018-06-10T18:48:27.748Z,15.27
2018-06-10T18:53:22.613Z,17.47
2018-06-10T18:58:17.223Z,15.77
2018-06-10T19:03:11.965Z,14.97
2018-06-10T19:08:08.116Z,16.30
2018-06-10T19:13:02.529Z,16.73
2018-06-10T19:17:57.078Z,15.57
2018-06-10T19:22:51.710Z,16.10
2018-06-10T19:27:46.221Z,17.60
2018-06-10T19:32:40.720Z,15.07
2018-06-10T19:37:36.507Z,17.07
2018-06-10T19:42:31.086Z,13.90
2018-06-10T19:47:25.849Z,15.07
2018-06-10T19:52:20.556Z,17.73
2018-06-10T19:57:15.088Z,13.27
2018-06-10T20:02:10.354Z,16.63
2018-06-10T20:07:04.617Z,14.43
2018-06-10T20:11:59.397Z,22.17
2018-06-10T20:16:53.859Z,14.63
2018-06-10T20:21:48.103Z,15.87
2018-06-10T20:26:42.704Z,18.50
2018-06-10T20:31:37.194Z,16.00
2018-06-10T20:36:32.036Z,16.87
2018-06-10T20:41:26.858Z,16.77
2018-06-10T20:46:21.716Z,17.07
2018-06-10T20:51:16.427Z,16.90
2018-06-10T20:56:11.857Z,15.77
2018-06-10T21:01:07.020Z,19.20
2018-06-10T21:06:02.544Z,16.50
2018-06-10T21:10:58.257Z,17.83
2018-06-10T21:15:53.447Z,16.23
2018-06-10T21:20:48.686Z,16.90
2018-06-10T21:25:43.392Z,19.37
2018-06-10T21:30:38.091Z,17.60
2018-06-10T21:35:34.391Z,17.50
2018-06-10T21:40:29.419Z,18.73
2018-06-10T21:45:24.509Z,16.50
2018-06-10T21:50:22.892Z,16.43
2018-06-10T21:55:17.483Z,16.33
2018-06-10T22:00:25.978Z,18.47
2018-06-10T22:05:20.882Z,17.47
2018-06-10T22:10:14.505Z,19.80
2018-06-10T22:15:09.311Z,17.60
2018-06-10T22:20:03.888Z,17.27
2018-06-10T22:24:58.487Z,18.27
2018-06-10T22:29:53.177Z,18.53
2018-06-10T22:34:47.428Z,16.60
2018-06-10T22:39:42.434Z,19.10
2018-06-10T22:44:37.038Z,16.17
2018-06-10T22:49:31.516Z,19.67
2018-06-10T22:54:44.383Z,21.07
2018-06-10T22:59:39.474Z,17.93
2018-06-10T23:04:34.010Z,20.60
2018-06-10T23:09:28.451Z,22.33
2018-06-10T23:14:23.628Z,18.50
2018-06-10T23:19:18.428Z,18.10
2018-06-10T23:24:12.894Z,18.50
2018-06-10T23:29:07.324Z,23.00
2018-06-10T23:34:02.174Z,19.17
2018-06-10T23:38:56.780Z,21.37
2018-06-10T23:43:51.385Z,19.63
2018-06-10T23:48:46.101Z,20.33
2018-06-10T23:53:40.669Z,20.70
2018-06-10T23:58:35.238Z,22.90
